Time;durP1;ratioP1;P1;durP2;ratioP2;P2;SDS_P1;SDS_P2;PMS_P1;PMS_P2;Temp;Humidity;BMP_temperature;BMP_pressure;BME280_temperature;BME280_humidity;BME280_pressure;Samples;Min_cycle;Max_cycle;Signal;HPM_P1;HPM_P2
2024/01/01 00:00:29;;;;;;;8.90;8.70;;;;;;;-141.02;100.00;38448.34;5094738;28;20218;-70
2024/01/01 00:02:56;;;;;;;8.70;8.50;;;;;;;-141.02;100.00;38433.00;5094207;28;20204;-70
2024/01/01 00:05:23;;;;;;;8.93;8.73;;;;;;;-141.02;100.00;38446.41;5094107;28;20686;-70
2024/01/01 00:07:51;;;;;;;9.73;9.43;;;;;;;-141.02;100.00;38456.00;5094312;28;20595;-70
2024/01/01 00:10:20;;;;;;;9.57;9.27;;;;;;;-141.02;100.00;38444.50;5094336;28;20564;-70
2024/01/01 00:12:47;;;;;;;10.27;9.97;;;;;;;-141.02;100.00;38444.50;5094214;28;20258;-70
2024/01/01 00:15:14;;;;;;;10.40;10.10;;;;;;;-141.02;100.00;38396.56;5094241;28;20254;-70
2024/01/01 00:17:41;;;;;;;10.50;10.20;;;;;;;-141.02;100.00;38373.56;5093887;28;20205;-70
2024/01/01 00:20:10;;;;;;;9.80;9.50;;;;;;;-141.02;100.00;38404.25;5093830;28;20401;-70
2024/01/01 00:22:37;;;;;;;9.47;9.17;;;;;;;-141.02;100.00;38337.13;5094072;28;20251;-70
2024/01/01 00:25:05;;;;;;;9.17;8.97;;;;;;;-141.02;100.00;38346.72;5093711;28;20577;-69
2024/01/01 00:27:34;;;;;;;9.30;9.00;;;;;;;-141.02;100.00;38028.50;5093942;28;20200;-70
2024/01/01 00:30:01;;;;;;;9.00;8.80;;;;;;;-141.02;100.00;38293.03;5093675;28;20197;-70
2024/01/01 00:32:28;;;;;;;8.93;8.73;;;;;;;-141.02;100.00;38254.69;5093949;28;20255;-71
2024/01/01 00:34:55;;;;;;;9.50;9.20;;;;;;;-141.02;100.00;38281.53;5094030;28;20190;-70
2024/01/01 00:37:22;;;;;;;9.10;8.90;;;;;;;-141.02;100.00;38323.72;5093492;28;20284;-70
2024/01/01 00:39:49;;;;;;;9.63;9.33;;;;;;;-141.02;100.00;38293.03;5093490;28;20548;-69
2024/01/01 00:42:15;;;;;;;9.17;8.93;;;;;;;-141.02;100.00;38281.53;5093357;28;20553;-70
2024/01/01 00:44:45;;;;;;;8.80;8.60;;;;;;;-141.02;100.00;38331.38;5093398;28;20196;-71
2024/01/01 00:47:12;;;;;;;8.63;8.43;;;;;;;-141.02;100.00;38323.72;5093866;28;20197;-70
2024/01/01 00:49:39;;;;;;;9.50;9.20;;;;;;;-141.02;100.00;38408.06;5093290;28;20229;-70
2024/01/01 00:52:07;;;;;;;9.33;9.03;;;;;;;-141.02;100.00;38419.56;5093205;28;20197;-70
2024/01/01 00:54:34;;;;;;;10.30;10.00;;;;;;;-141.02;100.00;38419.56;5093130;28;20193;-70
2024/01/01 00:57:01;;;;;;;10.10;9.80;;;;;;;-141.02;100.00;38377.41;5093657;28;20229;-71
2024/01/01 00:59:28;;;;;;;10.23;9.93;;;;;;;-141.02;100.00;38392.75;5093083;28;20189;-70
2024/01/01 01:01:56;;;;;;;9.80;9.50;;;;;;;-141.02;100.00;38442.59;5093055;28;20200;-70
2024/01/01 01:04:23;;;;;;;10.07;9.77;;;;;;;-141.02;100.00;38431.09;5092963;28;20204;-69
2024/01/01 01:06:50;;;;;;;9.27;8.97;;;;;;;-141.02;100.00;38519.28;5093238;28;20198;-69
2024/01/01 01:09:17;;;;;;;8.63;8.43;;;;;;;-141.02;100.00;38546.13;5093256;28;20198;-70
2024/01/01 01:11:43;;;;;;;9.00;8.80;;;;;;;-141.02;100.00;38542.28;5092392;28;20664;-70
2024/01/01 01:14:10;;;;;;;8.60;8.40;;;;;;;-141.02;100.00;38561.47;5093112;28;20201;-70
2024/01/01 01:16:37;;;;;;;8.77;8.57;;;;;;;-141.02;100.00;38584.47;5093214;28;20251;-70
2024/01/01 01:19:06;;;;;;;8.60;8.40;;;;;;;-141.02;100.00;38576.78;5093049;28;20200;-70
2024/01/01 01:21:36;;;;;;;8.60;8.40;;;;;;;-141.02;100.00;38569.13;5093024;28;20189;-70
2024/01/01 01:24:03;;;;;;;9.53;9.23;;;;;;;-141.02;100.00;38599.81;5092627;28;20667;-70
2024/01/01 01:26:30;;;;;;;9.67;9.37;;;;;;;-141.02;100.00;38622.81;5092674;28;20240;-70
2024/01/01 01:28:57;;;;;;;9.30;9.00;;;;;;;-141.02;100.00;38622.81;5092589;28;20707;-71
2024/01/01 01:31:24;;;;;;;9.40;9.10;;;;;;;-141.02;100.00;38607.47;5093104;28;20194;-70
2024/01/01 01:33:52;;;;;;;9.70;9.40;;;;;;;-141.02;100.00;38605.56;5092799;28;20194;-70
2024/01/01 01:36:20;;;;;;;10.00;9.70;;;;;;;-141.02;100.00;38626.66;5092385;28;20699;-71
2024/01/01 01:38:47;;;;;;;8.90;8.70;;;;;;;-141.02;100.00;38684.16;5092765;28;20200;-70
2024/01/01 01:41:14;;;;;;;8.80;8.60;;;;;;;-141.02;100.00;38705.25;5092963;28;20190;-70
2024/01/01 01:43:41;;;;;;;9.10;8.90;;;;;;;-141.02;100.00;38718.69;5092572;28;20190;-70
2024/01/01 01:46:08;;;;;;;8.60;8.40;;;;;;;-141.02;100.00;38781.94;5092255;28;20209;-69
2024/01/01 01:48:35;;;;;;;10.20;9.90;;;;;;;-141.02;100.00;38762.78;5092623;28;20335;-70
2024/01/01 01:51:03;;;;;;;9.80;9.50;;;;;;;-141.02;100.00;38787.72;5092298;28;20193;-70
2024/01/01 01:53:32;;;;;;;10.37;10.07;;;;;;;-141.02;100.00;38810.72;5092250;28;20193;-69
2024/01/01 01:56:03;;;;;;;10.20;9.90;;;;;;;-141.02;100.00;38833.72;5092428;28;20229;-70
2024/01/01 01:58:30;;;;;;;10.43;10.13;;;;;;;-141.02;100.00;38854.81;5092143;28;20197;-70
2024/01/01 02:00:57;;;;;;;9.80;9.50;;;;;;;-141.02;100.00;38745.53;5092435;28;20597;-70
2024/01/01 02:03:24;;;;;;;10.80;10.50;;;;;;;-141.02;100.00;38793.47;5092467;28;20194;-70
2024/01/01 02:05:51;;;;;;;10.70;10.40;;;;;;;-141.02;100.00;38810.72;5092182;28;20215;-71
2024/01/01 02:08:19;;;;;;;9.87;9.57;;;;;;;-141.02;100.00;38918.09;5092336;28;20200;-69
2024/01/01 02:10:47;;;;;;;9.50;9.20;;;;;;;-141.02;100.00;38910.44;5091965;28;20197;-70
2024/01/01 02:13:23;;;;;;;9.57;9.27;;;;;;;-141.02;100.00;39063.81;5092014;28;20196;-70
2024/01/01 02:15:50;;;;;;;9.27;8.97;;;;;;;-141.02;100.00;39115.59;5092212;28;20217;-70
2024/01/01 02:18:17;;;;;;;9.57;9.27;;;;;;;-141.02;100.00;39056.16;5091967;28;20598;-70
2024/01/01 02:20:44;;;;;;;9.47;9.17;;;;;;;-141.02;100.00;39129.03;5091887;28;20190;-70
2024/01/01 02:23:14;;;;;;;9.50;9.20;;;;;;;-141.02;100.00;39236.41;5091874;28;20581;-70
2024/01/01 02:25:41;;;;;;;8.80;8.60;;;;;;;-141.02;100.00;39357.22;5095557;28;20202;-70
2024/01/01 02:28:08;;;;;;;8.80;8.60;;;;;;;-141.02;100.00;39568.19;5096134;28;20230;-70
2024/01/01 02:30:35;;;;;;;8.00;7.80;;;;;;;-141.02;100.00;39690.94;5096139;28;20684;-70
2024/01/01 02:33:07;;;;;;;8.50;8.30;;;;;;;-141.02;100.00;39926.84;5095917;28;20612;-70
2024/01/01 02:35:34;;;;;;;8.27;8.07;;;;;;;-141.02;100.00;39938.38;5096125;28;20269;-71
2024/01/01 02:38:01;;;;;;;8.50;8.30;;;;;;;-141.02;100.00;39892.34;5096366;28;20201;-70
2024/01/01 02:40:29;;;;;;;8.30;8.10;;;;;;;-141.02;100.00;39982.47;5095759;28;20193;-70
2024/01/01 02:42:56;;;;;;;9.47;9.17;;;;;;;-141.02;100.00;40057.28;5096012;28;20190;-70
2024/01/01 02:45:24;;;;;;;8.97;8.73;;;;;;;-141.02;100.00;40114.84;5095718;28;20578;-70
2024/01/01 02:47:51;;;;;;;8.23;8.03;;;;;;;-141.02;100.00;40529.19;5095664;28;20725;-71
2024/01/01 02:50:20;;;;;;;8.60;8.40;;;;;;;-141.02;100.00;40375.72;5095578;28;20198;-70
2024/01/01 02:52:47;;;;;;;8.80;8.60;;;;;;;-141.02;100.00;40341.19;5095949;28;20216;-70
2024/01/01 02:55:14;;;;;;;8.80;8.60;;;;;;;-141.02;100.00;40444.78;5095990;28;20190;-71
2024/01/01 02:57:42;;;;;;;8.90;8.70;;;;;;;-141.02;100.00;40414.09;5095563;28;20231;-71
2024/01/01 03:00:10;;;;;;;8.63;8.43;;;;;;;-141.02;100.00;40385.31;5095422;28;20682;-70
2024/01/01 03:02:38;;;;;;;8.83;8.63;;;;;;;-141.02;100.00;40471.63;5095313;28;20587;-71
2024/01/01 03:05:06;;;;;;;9.00;8.80;;;;;;;-141.02;100.00;40458.22;5095570;28;20202;-70
2024/01/01 03:07:34;;;;;;;9.00;8.80;;;;;;;-141.02;100.00;40444.78;5095527;28;20194;-70
2024/01/01 03:10:01;;;;;;;8.60;8.40;;;;;;;-141.02;100.00;40648.13;5095568;28;20194;-70
2024/01/01 03:12:28;;;;;;;8.90;8.70;;;;;;;-141.02;100.00;40863.00;5095154;28;20197;-70
2024/01/01 03:14:56;;;;;;;8.90;8.70;;;;;;;-141.02;100.00;40924.41;5095123;28;20198;-70
2024/01/01 03:17:23;;;;;;;8.20;8.00;;;;;;;-141.02;100.00;40997.31;5095337;28;20244;-70
2024/01/01 03:19:50;;;;;;;7.87;7.67;;;;;;;-141.02;100.00;41131.63;5094998;28;20194;-71
2024/01/01 03:22:17;;;;;;;7.83;7.63;;;;;;;-141.02;100.00;41304.31;5095309;28;20198;-70
2024/01/01 03:24:44;;;;;;;8.50;8.30;;;;;;;-141.02;100.00;41492.38;5094981;28;20656;-71
2024/01/01 03:27:11;;;;;;;8.40;8.20;;;;;;;-141.02;100.00;41716.91;5094908;28;20728;-71
2024/01/01 03:29:38;;;;;;;7.97;7.77;;;;;;;-141.02;100.00;41668.94;5093821;28;20237;-70
2024/01/01 03:32:07;;;;;;;7.90;7.70;;;;;;;-141.02;100.00;42356.03;5093906;28;20194;-71
2024/01/01 03:34:34;;;;;;;8.43;8.23;;;;;;;-141.02;100.00;42382.91;5093504;28;20206;-71
2024/01/01 03:37:02;;;;;;;8.13;7.93;;;;;;;-141.02;100.00;42697.72;5093643;28;20587;-71
2024/01/01 03:39:29;;;;;;;8.23;8.03;;;;;;;-141.02;100.00;43058.63;5093489;28;20220;-71
2024/01/01 03:41:56;;;;;;;8.30;8.10;;;;;;;-141.02;100.00;43135.44;5093455;28;20204;-71
2024/01/01 03:44:23;;;;;;;8.70;8.50;;;;;;;-141.02;100.00;42954.97;5093397;28;20660;-72
2024/01/01 03:46:50;;;;;;;8.40;8.20;;;;;;;-141.02;100.00;43254.47;5093360;28;20194;-72
2024/01/01 03:49:18;;;;;;;8.40;8.20;;;;;;;-141.02;100.00;43012.56;5093365;28;20552;-72
2024/01/01 03:51:45;;;;;;;8.50;8.30;;;;;;;-141.02;100.00;43358.16;5093658;28;20189;-72
2024/01/01 03:54:12;;;;;;;8.87;8.67;;;;;;;-141.02;100.00;43400.38;5093255;28;20702;-72
2024/01/01 03:56:39;;;;;;;8.67;8.47;;;;;;;-141.02;100.00;43258.31;5093440;28;20255;-71
2024/01/01 03:59:06;;;;;;;9.17;8.93;;;;;;;-141.02;100.00;43546.31;5093444;28;20204;-72
2024/01/01 04:01:35;;;;;;;9.57;9.27;;;;;;;-141.02;100.00;43567.44;5093489;28;20201;-71
2024/01/01 04:04:04;;;;;;;9.60;9.30;;;;;;;-141.02;100.00;43949.56;5093135;28;20190;-71
2024/01/01 04:06:33;;;;;;;8.73;8.53;;;;;;;-141.02;100.00;44249.16;5093416;28;20205;-71
2024/01/01 04:08:59;;;;;;;8.77;8.57;;;;;;;-141.02;100.00;44560.31;5093371;28;20660;-71
2024/01/01 04:11:26;;;;;;;8.60;8.40;;;;;;;-141.02;100.00;45075.09;5093016;28;20655;-71
2024/01/01 04:13:53;;;;;;;8.90;8.70;;;;;;;-141.02;100.00;45824.41;5093008;28;20208;-70
2024/01/01 04:16:20;;;;;;;9.37;9.07;;;;;;;-141.02;100.00;46139.53;5093148;28;20193;-70
2024/01/01 04:18:48;;;;;;;9.20;8.90;;;;;;;-141.02;100.00;46139.53;5093125;28;20229;-71
2024/01/01 04:21:15;;;;;;;9.40;9.10;;;;;;;-141.02;100.00;47527.22;5093165;28;20190;-70
2024/01/01 04:23:43;;;;;;;9.83;9.53;;;;;;;-141.02;100.00;48165.53;5092987;28;20546;-71
2024/01/01 04:26:10;;;;;;;10.07;9.77;;;;;;;-141.02;100.00;49634.88;5093056;28;20197;-70
2024/01/01 04:28:37;;;;;;;9.37;9.07;;;;;;;-141.02;100.00;50698.78;5049949;28;1233514;-70
2024/01/01 04:31:04;;;;;;;9.27;8.97;;;;;;;-141.02;100.00;50352.44;5093916;28;20194;-70
2024/01/01 04:33:31;;;;;;;9.40;9.10;;;;;;;-141.02;100.00;49752.22;5093667;28;20674;-70
2024/01/01 04:35:58;;;;;;;9.50;9.20;;;;;;;-141.02;100.00;49617.56;5093793;28;20704;-70
2024/01/01 04:38:25;;;;;;;9.80;9.50;;;;;;;-141.02;100.00;50135.03;5093379;28;20232;-71
2024/01/01 04:40:53;;;;;;;9.00;8.80;;;;;;;-141.02;100.00;50385.16;5093424;28;20194;-70
2024/01/01 04:43:20;;;;;;;10.27;9.97;;;;;;;-141.02;100.00;50394.78;5093462;28;20194;-71
2024/01/01 04:45:47;;;;;;;9.77;9.47;;;;;;;-141.02;100.00;50945.09;5093462;28;20240;-70
2024/01/01 04:48:14;;;;;;;10.80;10.50;;;;;;;-141.02;100.00;51097.13;5092855;28;20223;-71
2024/01/01 04:50:41;;;;;;;10.50;10.20;;;;;;;-141.02;100.00;51682.22;5093622;28;20194;-71
2024/01/01 04:53:08;;;;;;;11.33;11.03;;;;;;;-141.02;100.00;52577.38;5093251;28;20196;-70
2024/01/01 04:55:35;;;;;;;11.20;10.90;;;;;;;-141.02;100.00;51791.94;5093156;28;20198;-69
2024/01/01 04:58:03;;;;;;;10.90;10.60;;;;;;;-141.02;100.00;51478.19;5093293;28;20221;-70
2024/01/01 05:00:30;;;;;;;10.70;10.40;;;;;;;-141.02;100.00;52575.44;5093357;28;20201;-70
2024/01/01 05:02:57;;;;;;;11.50;11.10;;;;;;;-141.02;100.00;52552.34;5093388;28;20200;-69
2024/01/01 05:05:24;;;;;;;11.23;10.93;;;;;;;-141.02;100.00;53103.00;5093261;28;20652;-70
2024/01/01 05:07:53;;;;;;;10.83;10.53;;;;;;;-141.02;100.00;53243.59;5092913;28;20652;-70
2024/01/01 05:10:20;;;;;;;11.20;10.90;;;;;;;-141.02;100.00;53207.00;5093188;28;20639;-71
2024/01/01 05:12:47;;;;;;;11.70;11.30;;;;;;;-141.02;100.00;53597.94;5092947;28;20197;-74
2024/01/01 05:15:15;;;;;;;11.70;11.30;;;;;;;-141.02;100.00;53551.72;5093471;28;20199;-70
2024/01/01 05:17:42;;;;;;;12.37;11.97;;;;;;;-141.02;100.00;54139.16;5092973;28;20226;-70
2024/01/01 05:20:09;;;;;;;11.90;11.50;;;;;;;-141.02;100.00;55113.94;5093147;28;20208;-70
2024/01/01 05:22:36;;;;;;;12.13;11.73;;;;;;;-141.02;100.00;56019.63;5093000;28;20200;-70
2024/01/01 05:25:03;;;;;;;12.27;11.87;;;;;;;-141.02;100.00;56513.03;5092967;28;20201;-71
2024/01/01 05:27:30;;;;;;;12.63;12.23;;;;;;;-141.02;100.00;56223.91;5092757;28;20202;-74
2024/01/01 05:29:57;;;;;;;12.17;11.77;;;;;;;-141.02;100.00;56513.03;5093176;28;20190;-72
2024/01/01 05:32:26;;;;;;;12.90;12.50;;;;;;;-141.02;100.00;57253.28;5092591;28;20189;-73
2024/01/01 05:34:53;;;;;;;13.10;12.70;;;;;;;-141.02;100.00;57253.28;5092810;28;20200;-75
2024/01/01 05:37:20;;;;;;;13.63;13.23;;;;;;;-141.02;100.00;57500.06;5092651;28;20608;-75
2024/01/01 05:39:47;;;;;;;13.10;12.70;;;;;;;-141.02;100.00;58734.28;5092449;28;20193;-72
2024/01/01 05:42:14;;;;;;;14.13;13.70;;;;;;;-141.02;100.00;59475.03;5092630;28;20198;-75
2024/01/01 05:44:41;;;;;;;14.43;13.93;;;;;;;-141.02;100.00;60462.94;5092380;28;20197;-73
2024/01/01 05:47:08;;;;;;;13.80;13.37;;;;;;;-141.02;100.00;60957.00;5092286;28;20197;-75
2024/01/01 05:49:36;;;;;;;14.47;13.97;;;;;;;-141.02;100.00;61945.31;5092282;28;20198;-74
2024/01/01 05:52:03;;;;;;;12.83;12.43;;;;;;;-141.02;100.00;63428.38;5092567;28;20198;-71
2024/01/01 05:54:30;;;;;;;14.00;13.50;;;;;;;-141.02;100.00;64664.72;5092535;28;20274;-72
2024/01/01 05:56:57;;;;;;;14.07;13.57;;;;;;;-141.02;100.00;66396.38;5092432;28;20691;-70
2024/01/01 05:59:24;;;;;;;14.07;13.57;;;;;;;-141.02;100.00;68376.50;5092043;28;20200;-74
2024/01/01 06:01:51;;;;;;;14.63;14.13;;;;;;;-141.02;100.00;70605.50;5092660;28;20212;-75
2024/01/01 06:04:18;;;;;;;14.13;13.63;;;;;;;-141.02;100.00;71844.47;5092452;28;20190;-76
2024/01/01 06:06:46;;;;;;;14.93;14.43;;;;;;;-141.02;100.00;73331.81;5092108;28;20200;-71
2024/01/01 06:09:13;;;;;;;14.70;14.20;;;;;;;-141.02;100.00;74819.81;5092328;28;20660;-75
2024/01/01 06:11:40;;;;;;;15.80;15.30;;;;;;;-141.02;100.00;75812.16;5091987;28;20193;-74
2024/01/01 06:14:07;;;;;;;15.10;14.60;;;;;;;-141.02;100.00;76556.59;5092300;28;20198;-71
2024/01/01 06:16:34;;;;;;;15.43;14.93;;;;;;;-141.02;100.00;77301.22;5092291;28;20197;-72
2024/01/01 06:19:00;;;;;;;15.00;14.50;;;;;;;-141.02;100.00;77301.22;5092134;28;20711;-72
2024/01/01 06:21:27;;;;;;;14.30;13.90;;;;;;;-141.02;100.00;77301.22;5092215;28;20284;-73
2024/01/01 06:23:56;;;;;;;15.17;14.67;;;;;;;-141.02;100.00;78046.00;5091904;28;20672;-75
2024/01/01 06:26:23;;;;;;;14.10;13.70;;;;;;;-141.02;100.00;78542.63;5092220;28;20204;-74
2024/01/01 06:28:49;;;;;;;15.90;15.40;;;;;;;-141.02;100.00;79536.03;5091798;28;20230;-73
2024/01/01 06:31:16;;;;;;;17.70;17.10;;;;;;;-141.02;100.00;80529.75;5092167;28;20198;-72
2024/01/01 06:33:44;;;;;;;16.33;15.83;;;;;;;-141.02;100.00;81026.72;5092055;28;20197;-71
2024/01/01 06:36:11;;;;;;;16.83;16.33;;;;;;;-141.02;100.00;81275.25;5091800;28;20200;-75
2024/01/01 06:38:38;;;;;;;15.77;15.27;;;;;;;-141.02;100.00;82020.88;5092066;28;20229;-73
2024/01/01 06:41:07;;;;;;;18.23;17.63;;;;;;;-141.02;100.00;83015.31;5091788;28;20190;-74
2024/01/01 06:43:34;;;;;;;17.50;16.90;;;;;;;-141.02;100.00;83263.97;5092006;28;20194;-72
2024/01/01 06:46:01;;;;;;;17.97;17.37;;;;;;;-141.02;100.00;83263.97;5092226;28;20193;-75
2024/01/01 06:48:28;;;;;;;17.43;16.83;;;;;;;-141.02;100.00;82766.69;5092003;28;20198;-74
2024/01/01 06:50:55;;;;;;;17.57;16.97;;;;;;;-141.02;100.00;82766.69;5092317;28;20301;-70
2024/01/01 06:53:22;;;;;;;16.37;15.80;;;;;;;-141.02;100.00;82766.69;5091624;28;20204;-70
2024/01/01 06:55:49;;;;;;;17.13;16.53;;;;;;;-141.02;100.00;83015.31;5091970;28;20190;-70
2024/01/01 06:58:17;;;;;;;16.23;15.73;;;;;;;-141.02;100.00;82766.69;5091895;28;20233;-71
2024/01/01 07:00:47;;;;;;;15.83;15.33;;;;;;;-141.02;100.00;83263.97;5091552;28;20193;-71
2024/01/01 07:03:14;;;;;;;17.13;16.53;;;;;;;-141.02;100.00;83263.97;5091445;28;20194;-70
2024/01/01 07:05:40;;;;;;;15.13;14.63;;;;;;;-141.02;100.00;82518.06;5091514;28;20198;-71
2024/01/01 07:08:07;;;;;;;15.03;14.53;;;;;;;-141.02;100.00;82518.06;5091810;28;20193;-71
2024/01/01 07:10:34;;;;;;;13.97;13.47;;;;;;;-141.02;100.00;82020.88;5093359;28;20196;-73
2024/01/01 07:13:01;;;;;;;12.93;12.53;;;;;;;-141.02;100.00;82020.88;5095464;28;20190;-73
2024/01/01 07:15:30;;;;;;;11.93;11.53;;;;;;;-141.02;100.00;81026.72;5095135;28;20680;-73
2024/01/01 07:17:56;;;;;;;9.17;8.90;;;;;;;-141.02;100.00;80281.31;5095334;28;20229;-73
2024/01/01 07:20:23;;;;;;;8.90;8.70;;;;;;;-141.02;100.00;76556.59;5095598;28;20197;-73
2024/01/01 07:22:50;;;;;;;8.60;8.40;;;;;;;-141.02;100.00;74323.72;5095318;28;20205;-73
2024/01/01 07:25:17;;;;;;;9.33;9.03;;;;;;;-141.02;100.00;72092.31;5095003;28;20729;-72
2024/01/01 07:27:44;;;;;;;8.30;8.10;;;;;;;-141.02;100.00;69119.34;5094995;28;20591;-72
2024/01/01 07:30:11;;;;;;;9.40;9.10;;;;;;;-141.02;100.00;66148.94;5095187;28;20204;-72
2024/01/01 07:32:40;;;;;;;10.03;9.73;;;;;;;-141.02;100.00;63675.59;5095068;28;20271;-72
2024/01/01 07:35:08;;;;;;;10.30;10.00;;;;;;;-141.02;100.00;61945.31;5095074;28;20193;-71
2024/01/01 07:37:35;;;;;;;10.63;10.33;;;;;;;-141.02;100.00;59968.94;5094936;28;20229;-71
2024/01/01 07:40:03;;;;;;;10.73;10.43;;;;;;;-141.02;100.00;57249.44;5094982;28;20198;-71
2024/01/01 07:42:29;;;;;;;11.87;11.47;;;;;;;-141.02;100.00;56750.13;5094975;28;20294;-70
2024/01/01 07:44:56;;;;;;;12.10;11.70;;;;;;;-141.02;100.00;56910.13;5094531;28;20200;-71
2024/01/01 07:47:23;;;;;;;12.37;11.97;;;;;;;-141.02;100.00;55025.31;5094840;28;20194;-71
2024/01/01 07:49:52;;;;;;;12.90;12.50;;;;;;;-141.02;100.00;54636.13;5094794;28;20229;-71
2024/01/01 07:52:19;;;;;;;13.30;12.90;;;;;;;-141.02;100.00;55370.19;5094707;28;20194;-71
2024/01/01 07:54:45;;;;;;;13.37;12.97;;;;;;;-141.02;100.00;55058.06;5094924;28;20198;-71
2024/01/01 07:57:12;;;;;;;13.90;13.40;;;;;;;-141.02;100.00;54378.00;5094590;28;20189;-72
2024/01/01 07:59:39;;;;;;;14.30;13.80;;;;;;;-141.02;100.00;53782.81;5094550;28;20223;-72
2024/01/01 08:02:06;;;;;;;14.07;13.57;;;;;;;-141.02;100.00;52344.41;5094578;28;20200;-71
2024/01/01 08:04:33;;;;;;;15.20;14.60;;;;;;;-141.02;100.00;51720.72;5094259;28;20705;-71
2024/01/01 08:07:01;;;;;;;15.20;14.60;;;;;;;-141.02;100.00;49700.25;5094198;28;20190;-71
2024/01/01 08:09:28;;;;;;;16.10;15.40;;;;;;;-141.02;100.00;48300.13;5094408;28;20300;-71
2024/01/01 08:11:55;;;;;;;17.20;16.50;;;;;;;-141.02;100.00;47902.13;5094057;28;20204;-71
2024/01/01 08:14:22;;;;;;;16.90;16.20;;;;;;;-141.02;100.00;47577.22;5094194;28;20193;-71
2024/01/01 08:16:49;;;;;;;16.20;15.60;;;;;;;-141.02;100.00;47673.34;5094013;28;20202;-71
2024/01/01 08:19:17;;;;;;;15.70;15.10;;;;;;;-141.02;100.00;48165.53;5094186;28;20267;-71
2024/01/01 08:21:44;;;;;;;15.80;15.20;;;;;;;-141.02;100.00;48396.28;5093000;28;20190;-71
2024/01/01 08:24:12;;;;;;;15.77;15.17;;;;;;;-141.02;100.00;48146.31;5094181;28;20198;-71
2024/01/01 08:26:39;;;;;;;15.63;15.03;;;;;;;-141.02;100.00;47027.44;5093732;28;20204;-71
2024/01/01 08:29:06;;;;;;;15.17;14.57;;;;;;;-141.02;100.00;46766.03;5093621;28;20613;-71
2024/01/01 08:31:33;;;;;;;15.00;14.50;;;;;;;-141.02;100.00;46819.84;5094002;28;20200;-71
2024/01/01 08:34:00;;;;;;;15.40;14.80;;;;;;;-141.02;100.00;46635.34;5093608;28;20194;-71
2024/01/01 08:36:27;;;;;;;14.30;13.80;;;;;;;-141.02;100.00;47321.53;5093878;28;20205;-71
2024/01/01 08:38:54;;;;;;;14.90;14.40;;;;;;;-141.02;100.00;47831.00;5093407;28;20237;-71
2024/01/01 08:41:23;;;;;;;15.80;15.20;;;;;;;-141.02;100.00;47679.09;5093506;28;20579;-71
2024/01/01 08:43:56;;;;;;;15.30;14.80;;;;;;;-141.02;100.00;47988.63;5093448;28;20193;-71
2024/01/01 08:46:24;;;;;;;13.67;13.27;;;;;;;-141.02;100.00;47965.56;5093459;28;20671;-71
2024/01/01 08:48:52;;;;;;;13.00;12.60;;;;;;;-141.02;100.00;48588.56;5093962;28;20190;-71
2024/01/01 08:51:19;;;;;;;11.37;11.07;;;;;;;-141.02;100.00;48884.72;5093634;28;20198;-70
2024/01/01 08:53:46;;;;;;;12.30;11.90;;;;;;;-141.02;100.00;47408.03;5093282;28;20668;-71
2024/01/01 08:56:12;;;;;;;12.40;12.00;;;;;;;-141.02;100.00;48242.44;5093712;28;20277;-71
2024/01/01 08:58:41;;;;;;;12.60;12.20;;;;;;;-141.02;100.00;46846.75;5093114;28;20320;-71
2024/01/01 09:01:07;;;;;;;13.70;13.30;;;;;;;-141.02;100.00;46858.28;5093448;28;20209;-71
2024/01/01 09:15:11;;;;;;;17.90;17.20;;;;;;;-141.02;100.00;45128.91;5130901;27;20559;-71
2024/01/01 09:17:38;;;;;;;17.30;16.60;;;;;;;-141.02;100.00;45059.75;5130552;28;20203;-71
2024/01/01 09:20:08;;;;;;;16.90;16.30;;;;;;;-141.02;100.00;45614.97;5130117;28;20192;-71
2024/01/01 09:22:35;;;;;;;14.27;13.77;;;;;;;-141.02;100.00;45908.94;5130620;28;20275;-71
2024/01/01 09:25:02;;;;;;;14.20;13.73;;;;;;;-141.02;100.00;45409.38;5130408;28;20194;-71
2024/01/01 09:27:29;;;;;;;14.90;14.40;;;;;;;-141.02;100.00;44592.97;5130097;27;20192;-70
2024/01/01 09:29:56;;;;;;;14.80;14.30;;;;;;;-141.02;100.00;44293.34;5129986;28;20712;-71
2024/01/01 09:32:25;;;;;;;14.77;14.27;;;;;;;-141.02;100.00;43849.72;5129975;28;20204;-70
2024/01/01 09:34:52;;;;;;;14.37;13.87;;;;;;;-141.02;100.00;43822.84;5129901;28;20654;-71
2024/01/01 09:37:18;;;;;;;14.30;13.80;;;;;;;-141.02;100.00;43799.78;5129768;28;20196;-71
2024/01/01 09:39:45;;;;;;;14.60;14.00;;;;;;;-141.02;100.00;43811.31;5129764;28;20661;-71
2024/01/01 09:42:12;;;;;;;14.47;13.97;;;;;;;-141.02;100.00;43970.69;5130046;28;20272;-71
2024/01/01 09:44:39;;;;;;;13.37;12.97;;;;;;;-141.02;100.00;43939.97;5129935;28;20315;-70
2024/01/01 09:47:06;;;;;;;12.90;12.50;;;;;;;-141.02;100.00;43945.72;5129989;28;20275;-70
2024/01/01 09:49:36;;;;;;;13.10;12.70;;;;;;;-141.02;100.00;44103.22;5129870;28;20301;-71
2024/01/01 09:52:04;;;;;;;13.70;13.20;;;;;;;-141.02;100.00;43851.63;5129492;28;20189;-70
2024/01/01 09:54:33;;;;;;;67.53;56.90;;;;;;;-141.02;100.00;43936.13;5129679;27;20203;-71
2024/01/01 09:57:00;;;;;;;13.17;12.77;;;;;;;-141.02;100.00;43963.03;5129781;28;20200;-70
2024/01/01 09:59:36;;;;;;;12.67;12.27;;;;;;;-141.02;100.00;44245.31;5129637;28;20275;-70
2024/01/01 10:02:05;;;;;;;12.90;12.50;;;;;;;-141.02;100.00;44180.03;5129393;28;20711;-70
2024/01/01 10:04:32;;;;;;;13.30;12.80;;;;;;;-141.02;100.00;44030.22;5129232;27;20224;-71
2024/01/01 10:07:00;;;;;;;14.20;13.60;;;;;;;-141.02;100.00;43573.19;5129567;28;20197;-70
2024/01/01 10:09:28;;;;;;;14.20;13.70;;;;;;;-141.02;100.00;43680.72;5129555;27;20193;-71
2024/01/01 10:12:09;;;;;;;13.53;13.03;;;;;;;-141.02;100.00;44024.47;5129561;28;20188;-70
2024/01/01 10:14:46;;;;;;;13.50;13.00;;;;;;;-141.02;100.00;44253.00;5123760;28;20264;-71
2024/01/01 10:17:14;;;;;;;12.80;12.40;;;;;;;-141.02;100.00;44744.72;5115420;28;20596;-70
2024/01/01 10:19:51;;;;;;;14.00;13.50;;;;;;;-141.02;100.00;44149.31;5115379;28;20232;-70
2024/01/01 10:22:20;;;;;;;13.70;13.20;;;;;;;-141.02;100.00;44003.34;5115291;28;20197;-69
2024/01/01 10:24:47;;;;;;;14.00;13.50;;;;;;;-141.02;100.00;43565.53;5115463;28;20225;-71
2024/01/01 10:27:18;;;;;;;13.93;13.43;;;;;;;-141.02;100.00;43605.84;5115502;28;20287;-70
2024/01/01 10:29:47;;;;;;;12.50;12.10;;;;;;;-141.02;100.00;43891.97;5115468;28;20207;-71
2024/01/01 10:32:16;;;;;;;12.30;11.90;;;;;;;-141.02;100.00;43880.44;5115380;28;20189;-70
2024/01/01 10:34:45;;;;;;;11.50;11.10;;;;;;;-141.02;100.00;44212.69;5115772;28;20213;-70
2024/01/01 10:37:14;;;;;;;12.00;11.60;;;;;;;-141.02;100.00;44621.78;5114901;28;20200;-71
2024/01/01 10:39:45;;;;;;;12.93;12.43;;;;;;;-141.02;100.00;44671.72;5114927;28;20686;-71
2024/01/01 10:42:12;;;;;;;13.87;13.27;;;;;;;-141.02;100.00;44187.72;5114886;28;20750;-71
2024/01/01 10:44:40;;;;;;;13.70;13.20;;;;;;;-141.02;100.00;44162.75;5114809;28;20728;-71
2024/01/01 10:47:09;;;;;;;14.57;13.97;;;;;;;-141.02;100.00;45136.59;5114840;28;20200;-70
2024/01/01 10:49:40;;;;;;;14.40;13.80;;;;;;;-141.02;100.00;45413.22;5115002;28;20197;-70
2024/01/01 10:52:35;;;;;;;15.60;14.90;;;;;;;-141.02;100.00;45100.09;5115017;28;20189;-71
2024/01/01 10:55:30;;;;;;;15.30;14.60;;;;;;;-141.02;100.00;45078.94;5114628;28;20200;-70
2024/01/01 10:58:19;;;;;;;16.50;15.60;;;;;;;-141.02;100.00;45234.56;5114636;28;20195;-70
2024/01/01 11:01:02;;;;;;;17.27;16.17;;;;;;;-141.02;100.00;44756.22;5114607;28;20662;-70
2024/01/01 11:03:30;;;;;;;18.25;17.05;;;;;;;-141.02;100.00;44441.22;5114372;28;20212;-71
2024/01/01 11:05:57;;;;;;;19.23;17.83;;;;;;;-141.02;100.00;43815.16;5114458;28;20284;-70
2024/01/01 11:08:27;;;;;;;19.50;18.20;;;;;;;-141.02;100.00;43486.78;5114934;28;20193;-70
2024/01/01 11:10:57;;;;;;;21.10;19.50;;;;;;;-141.02;95.40;42855.13;5114556;28;20779;-70
2024/01/01 11:13:55;;;;;;;21.30;19.70;;;;;;;-141.02;100.00;42916.56;5114065;28;20613;-70